Charlotte (CLT/KCLT)

Map

Destinations

Information

Location
Charlotte, NC
Local Time
01:35 / 1:35 am
GMT Time
06:35 / 6:35 am
Gates
Unassigned
No FAA reported delays
METAR KCLT 220552Z 03003KT 10SM OVC026 12/09 A3005 RMK AO2 RAE02 SLP172 P0000 60003 T01220094 10183 20122 58015
TAF KCLT 220540Z 2206/2306 10005KT P6SM -SHRA OVC025 TEMPO 2209/2213 4SM -SHRA OVC007 FM221300 09004KT P6SM OVC010 FM221800 05003KT P6SM OVC025 PROB30 2218/2222 4SM -SHRA OVC015 FM222200 04004KT P6SM OVC035 PROB30 2222/2223 4SM -SHRA OVC025
  • No charts available